New London, Connecticut
Current Conditions -  °F | °C
As of 5:56 AM on Friday 31 Oct 2014 (Local Time) from KGON Reporting Station
Overcast Overcast  
Wind Chill: 35°   Ceiling: 5500
Heat Index: 39°   Visibility: 10mi
Dew Point: 36°   Wind: 6mph
Humidity: 89%   Direction: 360°N
Pressure: 30"   Gusts: NA
Location:  41.36°N, 72.1°W
Report Text: KGON 310956Z AUTO 36005KT 10SM OVC055 04/02 A3000 RMK AO2 SLP160 T00390022 TSNO
Loading
Personal Weather Stations






























Interactive Weather Map New forecast layout! Learn more

10-Day Weather Forecast

Advertisements
Track Severe Weather on mobile